Terminal Aerodrome Forecast
Issued by NWS Louisville, KY

Home | Current Version | Previous Version | Text Only | Print | Product List | Glossary On
Versions: 1 2 3 4 5 6 7 8 9 10 11 12 13 14 15 16 17 18 19
000
FTUS43 KLMK 142100 AAA
TAFBWG
TAF AMD
KBWG 142132Z 1422/1518 20010KT P6SM SCT035 OVC050
     FM150000 29011KT P6SM -SHRA OVC015
     FM150900 32012G20KT P6SM BKN025=

USA.gov is the U.S. government's official web portal to all federal, state and local government web resources and services.